createdAt,value
2022-08-23T00:01:36.179Z,46.96
2022-08-23T00:04:07.255Z,45.17
2022-08-23T00:06:33.809Z,46.47
2022-08-23T00:09:00.338Z,47.05
2022-08-23T00:11:36.119Z,46.93
2022-08-23T00:14:12.334Z,47.09
2022-08-23T00:16:39.641Z,46.92
2022-08-23T00:19:07.484Z,47.39
2022-08-23T00:21:35.470Z,48.04
2022-08-23T00:24:02.647Z,47.67
2022-08-23T00:26:50.335Z,48.33
2022-08-23T00:29:17.451Z,48.48
2022-08-23T00:31:44.494Z,48.05
2022-08-23T00:34:11.568Z,48.50
2022-08-23T00:36:39.170Z,48.79
2022-08-23T00:39:06.206Z,48.47
2022-08-23T00:41:34.091Z,48.94
2022-08-23T00:44:01.084Z,48.99
2022-08-23T00:46:47.237Z,49.71
2022-08-23T00:49:14.840Z,48.61
2022-08-23T00:51:52.697Z,48.43
2022-08-23T00:54:22.290Z,48.68
2022-08-23T00:56:49.789Z,48.84
2022-08-23T00:59:16.817Z,48.88
2022-08-23T01:01:43.630Z,48.11
2022-08-23T01:04:11.571Z,46.32
2022-08-23T01:06:42.951Z,48.89
2022-08-23T01:09:12.788Z,48.19
2022-08-23T01:12:08.415Z,48.93
2022-08-23T01:14:43.227Z,48.67
2022-08-23T01:17:23.076Z,49.13
2022-08-23T01:19:57.786Z,49.59
2022-08-23T01:22:32.897Z,49.40
2022-08-23T01:25:07.257Z,49.77
2022-08-23T01:27:36.097Z,50.22
2022-08-23T01:30:05.680Z,50.04
2022-08-23T01:32:34.365Z,50.03
2022-08-23T01:35:00.864Z,49.24
2022-08-23T01:37:27.647Z,49.81
2022-08-23T01:39:54.272Z,49.72
2022-08-23T01:42:20.800Z,49.72
2022-08-23T01:44:47.644Z,50.03
2022-08-23T01:47:14.382Z,49.70
2022-08-23T01:49:40.904Z,50.21
2022-08-23T01:52:07.420Z,50.82
2022-08-23T01:54:34.421Z,50.56
2022-08-23T01:57:01.015Z,50.85
2022-08-23T01:59:27.621Z,50.89
2022-08-23T02:01:54.306Z,50.64
2022-08-23T02:04:21.009Z,51.51
2022-08-23T02:06:47.759Z,51.13
2022-08-23T02:09:17.312Z,51.26
2022-08-23T02:11:45.673Z,52.29
2022-08-23T02:14:15.525Z,51.70
2022-08-23T02:16:50.931Z,52.40
2022-08-23T02:19:31.355Z,52.27
2022-08-23T02:21:58.014Z,52.62
2022-08-23T02:24:25.137Z,53.24
2022-08-23T02:26:56.445Z,54.45
2022-08-23T02:29:25.360Z,54.11
2022-08-23T02:31:52.870Z,55.23
2022-08-23T02:34:20.448Z,56.10
2022-08-23T02:36:47.234Z,56.80
2022-08-23T02:39:14.926Z,56.41
2022-08-23T02:41:41.491Z,55.84
2022-08-23T02:44:08.280Z,55.50
2022-08-23T02:46:34.917Z,54.81
2022-08-23T02:49:01.933Z,54.38
2022-08-23T02:51:28.461Z,54.43
2022-08-23T02:53:54.982Z,54.75
2022-08-23T02:56:22.114Z,55.48
2022-08-23T02:58:54.549Z,55.72
2022-08-23T03:01:31.805Z,55.60
2022-08-23T03:04:00.748Z,55.25
2022-08-23T03:06:27.769Z,55.59
2022-08-23T03:08:56.144Z,55.69
2022-08-23T03:11:23.696Z,55.82
2022-08-23T03:13:51.118Z,55.14
2022-08-23T03:16:18.774Z,55.33
2022-08-23T03:18:46.346Z,55.25
2022-08-23T03:21:13.827Z,55.87
2022-08-23T03:23:40.726Z,56.95
2022-08-23T03:26:10.484Z,57.04
2022-08-23T03:28:38.603Z,57.73
2022-08-23T03:31:06.565Z,59.47
2022-08-23T03:33:33.296Z,59.78
2022-08-23T03:36:04.111Z,59.99
2022-08-23T03:38:30.920Z,61.09
2022-08-23T03:40:57.815Z,60.52
2022-08-23T03:43:24.827Z,61.19
2022-08-23T03:45:51.677Z,60.77
2022-08-23T03:48:18.273Z,60.86
2022-08-23T03:50:44.964Z,61.18
2022-08-23T03:53:12.095Z,60.91
2022-08-23T03:55:42.499Z,60.77
2022-08-23T03:58:10.306Z,61.47
2022-08-23T04:00:37.123Z,61.71
2022-08-23T04:03:04.248Z,61.55
2022-08-23T04:05:30.741Z,62.01
2022-08-23T04:07:57.357Z,62.50
2022-08-23T04:10:24.100Z,62.23
2022-08-23T04:12:50.706Z,61.95
2022-08-23T04:15:17.381Z,62.23
2022-08-23T04:17:44.300Z,62.34
2022-08-23T04:20:11.141Z,62.41
2022-08-23T04:22:37.735Z,62.70
2022-08-23T04:25:05.501Z,62.83
2022-08-23T04:27:52.005Z,62.39
2022-08-23T04:30:18.765Z,62.27
2022-08-23T04:32:47.409Z,61.97
2022-08-23T04:35:15.198Z,61.97
2022-08-23T04:37:41.959Z,62.34
2022-08-23T04:40:09.443Z,62.00
2022-08-23T04:42:36.361Z,62.10
2022-08-23T04:45:03.588Z,62.05
2022-08-23T04:47:30.073Z,60.87
2022-08-23T04:49:56.821Z,59.09
2022-08-23T04:52:23.316Z,59.14
2022-08-23T04:54:49.983Z,58.44
2022-08-23T04:57:16.515Z,58.85
2022-08-23T04:59:43.008Z,59.51
2022-08-23T05:02:09.563Z,58.70
2022-08-23T05:04:36.332Z,59.00
2022-08-23T05:07:03.151Z,59.59
2022-08-23T05:09:29.686Z,59.76
2022-08-23T05:11:56.238Z,59.66
2022-08-23T05:14:23.234Z,58.87
2022-08-23T05:16:49.883Z,57.89
2022-08-23T05:19:16.399Z,58.17
2022-08-23T05:21:42.926Z,56.40
2022-08-23T05:24:13.517Z,56.81
2022-08-23T05:26:41.146Z,56.69
2022-08-23T05:29:07.930Z,56.57
2022-08-23T05:31:34.680Z,55.94
2022-08-23T05:34:02.502Z,55.13
2022-08-23T05:36:29.291Z,56.05
2022-08-23T05:38:55.981Z,54.80
2022-08-23T05:41:22.457Z,55.59
2022-08-23T05:43:59.976Z,54.90
2022-08-23T05:46:29.260Z,54.18
2022-08-23T05:48:57.035Z,55.07
2022-08-23T05:51:29.389Z,53.79
2022-08-23T05:53:59.519Z,53.86
2022-08-23T05:56:29.027Z,54.26
2022-08-23T05:59:00.069Z,55.10
2022-08-23T06:01:28.681Z,54.92
2022-08-23T06:03:55.446Z,55.01
2022-08-23T06:06:21.972Z,54.88
2022-08-23T06:08:51.544Z,54.78
2022-08-23T06:11:21.472Z,54.87
2022-08-23T06:13:51.623Z,55.74
2022-08-23T06:16:24.518Z,56.60
2022-08-23T06:18:51.599Z,55.23
2022-08-23T06:21:18.592Z,54.85
2022-08-23T06:23:46.007Z,53.80
2022-08-23T06:26:14.894Z,53.56
2022-08-23T06:28:50.465Z,54.03
2022-08-23T06:31:19.905Z,54.10
2022-08-23T06:33:46.555Z,53.30
2022-08-23T06:36:14.025Z,52.81
2022-08-23T06:38:41.361Z,52.76
2022-08-23T06:41:10.928Z,52.68
2022-08-23T06:43:38.550Z,51.98
2022-08-23T06:46:12.593Z,51.65
2022-08-23T06:48:39.541Z,51.82
2022-08-23T06:51:14.793Z,50.60
2022-08-23T06:53:41.489Z,52.27
2022-08-23T06:56:08.207Z,51.75
2022-08-23T06:58:34.769Z,51.73
2022-08-23T07:01:35.083Z,51.17
2022-08-23T07:04:00.156Z,46.03
2022-08-23T07:06:28.323Z,42.00
2022-08-23T07:08:55.388Z,38.81
2022-08-23T07:11:23.393Z,36.64
2022-08-23T07:13:50.212Z,35.22
2022-08-23T07:16:17.057Z,34.68
2022-08-23T07:18:44.897Z,33.85
2022-08-23T07:21:11.730Z,33.42
2022-08-23T07:23:39.372Z,32.19
2022-08-23T07:26:11.431Z,32.55
2022-08-23T07:28:40.876Z,31.96
2022-08-23T07:31:22.765Z,32.80
2022-08-23T07:33:49.780Z,32.28
2022-08-23T07:36:19.710Z,32.82
2022-08-23T07:38:47.638Z,32.82
2022-08-23T07:41:14.724Z,32.78
2022-08-23T07:43:41.431Z,32.45
2022-08-23T07:46:09.720Z,31.56
2022-08-23T07:48:55.398Z,33.88
2022-08-23T07:51:21.973Z,34.24
2022-08-23T07:53:48.486Z,33.04
2022-08-23T07:56:17.958Z,33.26
2022-08-23T07:58:44.775Z,32.98
2022-08-23T08:01:12.998Z,32.82
2022-08-23T08:03:39.700Z,32.89
2022-08-23T08:06:11.330Z,34.16
2022-08-23T08:08:38.275Z,34.91
2022-08-23T08:11:08.983Z,34.86
2022-08-23T08:13:44.370Z,33.85
2022-08-23T08:16:19.815Z,34.48
2022-08-23T08:18:48.895Z,33.38
2022-08-23T08:21:16.693Z,33.38
2022-08-23T08:23:43.530Z,33.19
2022-08-23T08:26:10.400Z,34.75
2022-08-23T08:28:37.686Z,34.39
2022-08-23T08:31:05.131Z,34.76
2022-08-23T08:33:34.374Z,34.97
2022-08-23T08:36:04.170Z,34.54
2022-08-23T08:38:32.442Z,35.01
2022-08-23T08:41:15.872Z,35.16
2022-08-23T08:44:07.554Z,34.35
2022-08-23T08:46:44.921Z,33.79
2022-08-23T08:49:22.303Z,34.41
2022-08-23T08:52:03.788Z,34.38
2022-08-23T08:54:31.124Z,34.46
2022-08-23T08:56:59.457Z,35.16
2022-08-23T08:59:41.945Z,36.22
2022-08-23T09:02:20.075Z,35.32
2022-08-23T09:05:07.852Z,37.12
2022-08-23T09:07:55.048Z,37.52
2022-08-23T09:10:33.668Z,35.98
2022-08-23T09:13:12.087Z,36.99
2022-08-23T09:15:47.055Z,37.03
2022-08-23T09:18:16.453Z,37.71
2022-08-23T09:20:44.539Z,37.33
2022-08-23T09:23:18.670Z,39.23
2022-08-23T09:25:57.886Z,40.75
2022-08-23T09:28:31.213Z,41.53
2022-08-23T09:30:59.265Z,42.14
2022-08-23T09:33:42.333Z,41.74
2022-08-23T09:36:19.434Z,43.83
2022-08-23T09:39:07.815Z,43.69
2022-08-23T09:41:44.806Z,43.91
2022-08-23T09:44:16.751Z,43.19
2022-08-23T09:46:44.008Z,43.88
2022-08-23T09:49:26.682Z,43.62
2022-08-23T09:51:55.691Z,43.10
2022-08-23T09:54:37.172Z,43.61
2022-08-23T09:57:11.833Z,44.42
2022-08-23T09:59:38.675Z,44.02
2022-08-23T10:02:33.197Z,45.09
2022-08-23T10:05:07.317Z,43.01
2022-08-23T10:07:54.382Z,38.43
2022-08-23T10:10:27.719Z,37.95
2022-08-23T10:12:56.028Z,36.77
2022-08-23T10:15:41.566Z,36.91
2022-08-23T10:18:18.478Z,41.44
2022-08-23T10:20:51.225Z,42.38
2022-08-23T10:23:26.497Z,39.56
2022-08-23T10:25:58.578Z,39.62
2022-08-23T10:28:53.249Z,40.60
2022-08-23T10:31:39.252Z,41.93
2022-08-23T10:34:33.815Z,40.68
2022-08-23T10:37:22.310Z,38.40
2022-08-23T10:40:03.969Z,40.47
2022-08-23T10:42:49.231Z,40.40
2022-08-23T10:45:22.383Z,38.51
2022-08-23T10:48:27.138Z,39.86
2022-08-23T10:51:03.814Z,36.97
2022-08-23T10:53:53.804Z,38.08
2022-08-23T10:56:22.920Z,35.50
2022-08-23T10:58:56.644Z,34.81
2022-08-23T11:01:36.142Z,35.73
2022-08-23T11:04:07.281Z,36.13
2022-08-23T11:06:36.802Z,34.73
2022-08-23T11:09:30.681Z,34.67
2022-08-23T11:12:25.516Z,34.07
2022-08-23T11:15:12.217Z,34.62
2022-08-23T11:17:50.996Z,34.11
2022-08-23T11:20:51.728Z,34.33
2022-08-23T11:23:44.207Z,33.63
2022-08-23T11:26:37.211Z,34.97
2022-08-23T11:29:07.093Z,35.44
2022-08-23T11:31:38.445Z,35.19
2022-08-23T11:34:13.018Z,34.68
2022-08-23T11:36:39.544Z,34.99
2022-08-23T11:39:11.811Z,35.34
2022-08-23T11:41:53.697Z,34.37
2022-08-23T11:44:34.691Z,34.25
2022-08-23T11:47:03.638Z,34.84
2022-08-23T11:49:30.603Z,35.97
2022-08-23T11:52:31.944Z,35.08
2022-08-23T11:55:04.589Z,33.25
2022-08-23T11:58:02.582Z,35.30
2022-08-23T12:01:02.326Z,36.78
2022-08-23T12:03:50.605Z,35.92
2022-08-23T12:06:21.363Z,36.25
2022-08-23T12:09:11.686Z,36.33
2022-08-23T12:11:56.404Z,37.74
2022-08-23T12:14:31.994Z,37.43
2022-08-23T12:17:00.045Z,36.94
2022-08-23T12:19:42.180Z,36.70
2022-08-23T12:22:27.349Z,36.66
2022-08-23T12:25:06.799Z,37.20
2022-08-23T12:27:46.326Z,37.74
2022-08-23T12:30:29.432Z,34.80
2022-08-23T12:33:33.560Z,36.05
2022-08-23T12:36:02.782Z,35.16
2022-08-23T12:39:04.907Z,35.54
2022-08-23T12:41:55.958Z,35.23
2022-08-23T12:44:26.704Z,34.47
2022-08-23T12:46:53.788Z,34.14
2022-08-23T12:49:32.857Z,34.19
2022-08-23T12:52:02.663Z,34.75
2022-08-23T12:54:36.568Z,34.85
2022-08-23T12:57:03.648Z,34.31
2022-08-23T12:59:34.970Z,34.49
2022-08-23T13:02:05.348Z,35.24
2022-08-23T13:04:32.360Z,35.48
2022-08-23T13:07:02.069Z,34.79
2022-08-23T13:09:34.102Z,34.42
2022-08-23T13:12:04.116Z,33.78
2022-08-23T13:14:39.725Z,33.46
2022-08-23T13:17:24.893Z,33.14
2022-08-23T13:19:54.241Z,33.05
2022-08-23T13:22:25.732Z,33.09
2022-08-23T13:27:57.459Z,33.00
2022-08-23T13:30:30.088Z,32.63
2022-08-23T13:33:07.939Z,32.45
2022-08-23T13:35:34.690Z,32.63
2022-08-23T13:38:20.881Z,33.56
2022-08-23T13:41:05.190Z,31.91
2022-08-23T13:43:45.507Z,32.25
2022-08-23T13:46:26.555Z,32.09
2022-08-23T13:49:04.286Z,31.53
2022-08-23T13:51:37.144Z,31.76
2022-08-23T13:54:12.923Z,32.23
2022-08-23T13:56:48.028Z,32.25
2022-08-23T13:59:26.876Z,30.80
2022-08-23T14:02:00.007Z,31.22
2022-08-23T14:04:26.840Z,31.41
2022-08-23T14:06:53.470Z,31.92
2022-08-23T14:09:20.556Z,31.91
2022-08-23T14:11:54.558Z,31.28
2022-08-23T14:14:21.276Z,31.91
2022-08-23T14:16:47.914Z,31.89
2022-08-23T14:19:16.884Z,31.93
2022-08-23T14:22:01.412Z,30.65
2022-08-23T14:24:28.535Z,31.48
2022-08-23T14:26:57.067Z,32.26
2022-08-23T14:29:25.664Z,31.83
2022-08-23T14:31:52.341Z,31.64
2022-08-23T14:34:20.002Z,31.99
2022-08-23T14:39:33.927Z,32.00
2022-08-23T14:42:00.561Z,32.09
2022-08-23T14:44:31.594Z,31.09
2022-08-23T14:47:00.169Z,31.06
2022-08-23T14:49:27.017Z,30.66
2022-08-23T14:51:53.838Z,30.57
2022-08-23T14:54:23.856Z,30.60
2022-08-23T14:56:50.706Z,30.75
2022-08-23T14:59:17.286Z,30.92
2022-08-23T15:01:44.457Z,30.83
2022-08-23T15:04:11.897Z,31.29
2022-08-23T15:06:50.169Z,31.02
2022-08-23T15:09:24.968Z,31.51
2022-08-23T15:14:38.249Z,31.37
2022-08-23T15:17:05.570Z,31.46
2022-08-23T15:19:32.132Z,31.50
2022-08-23T15:22:01.491Z,31.50
2022-08-23T15:24:45.316Z,31.30
2022-08-23T15:27:12.446Z,31.89
2022-08-23T15:29:39.048Z,31.49
2022-08-23T15:32:05.750Z,31.66
2022-08-23T15:34:35.362Z,31.54
2022-08-23T15:37:02.207Z,30.46
2022-08-23T15:39:28.709Z,31.59
2022-08-23T15:41:57.585Z,31.05
2022-08-23T15:44:24.703Z,30.96
2022-08-23T15:46:54.202Z,31.29
2022-08-23T15:49:21.375Z,31.63
2022-08-23T15:51:47.871Z,31.32
2022-08-23T15:54:14.385Z,31.13
2022-08-23T15:56:44.033Z,30.63
2022-08-23T15:59:14.398Z,31.32
2022-08-23T16:01:42.217Z,30.67
2022-08-23T16:04:09.668Z,30.82
2022-08-23T16:06:37.335Z,30.82
2022-08-23T16:09:06.246Z,30.99
2022-08-23T16:11:33.190Z,31.15
2022-08-23T16:14:00.270Z,30.95
2022-08-23T16:16:30.801Z,31.18
2022-08-23T16:18:58.656Z,31.18
2022-08-23T16:21:27.329Z,30.98
2022-08-23T16:23:55.524Z,31.08
2022-08-23T16:26:34.905Z,31.16
2022-08-23T16:29:07.334Z,31.28
2022-08-23T16:31:37.432Z,31.04
2022-08-23T16:34:09.940Z,31.49
2022-08-23T16:36:37.074Z,31.65
2022-08-23T16:39:05.191Z,31.35
2022-08-23T16:41:31.704Z,31.91
2022-08-23T16:43:58.321Z,31.62
2022-08-23T16:46:25.289Z,31.80
2022-08-23T16:48:51.890Z,32.00
2022-08-23T16:51:19.207Z,32.14
2022-08-23T16:54:02.294Z,32.09
2022-08-23T16:56:30.733Z,32.03
2022-08-23T16:58:57.394Z,32.13
2022-08-23T17:01:24.018Z,32.01
2022-08-23T17:03:50.931Z,32.16
2022-08-23T17:06:17.541Z,32.17
2022-08-23T17:08:44.277Z,32.33
2022-08-23T17:11:14.017Z,32.74
2022-08-23T17:13:41.295Z,33.33
2022-08-23T17:16:07.916Z,32.43
2022-08-23T17:18:34.723Z,33.02
2022-08-23T17:21:01.239Z,33.08
2022-08-23T17:23:27.999Z,33.35
2022-08-23T17:25:55.492Z,33.45
2022-08-23T17:28:23.051Z,33.65
2022-08-23T17:30:49.895Z,33.83
2022-08-23T17:33:16.458Z,34.14
2022-08-23T17:35:43.350Z,34.02
2022-08-23T17:38:09.877Z,33.96
2022-08-23T17:40:39.229Z,34.43
2022-08-23T17:43:05.944Z,34.49
2022-08-23T17:45:47.868Z,34.38
2022-08-23T17:48:16.688Z,34.94
2022-08-23T17:50:43.841Z,34.94
2022-08-23T17:53:11.350Z,34.82
2022-08-23T17:55:38.750Z,35.11
2022-08-23T17:58:07.094Z,35.19
2022-08-23T18:00:35.629Z,35.68
2022-08-23T18:03:02.308Z,35.48
2022-08-23T18:05:30.427Z,35.58
2022-08-23T18:07:56.983Z,35.88
2022-08-23T18:10:27.244Z,36.16
2022-08-23T18:12:56.082Z,36.11
2022-08-23T18:15:22.814Z,36.31
2022-08-23T18:17:49.501Z,36.64
2022-08-23T18:20:18.610Z,36.46
2022-08-23T18:22:45.153Z,36.05
2022-08-23T18:25:11.756Z,36.46
2022-08-23T18:27:38.333Z,36.33
2022-08-23T18:30:08.367Z,36.44
2022-08-23T18:32:35.718Z,36.26
2022-08-23T18:35:03.387Z,36.33
2022-08-23T18:37:29.926Z,36.46
2022-08-23T18:39:56.589Z,36.47
2022-08-23T18:42:23.214Z,36.59
2022-08-23T18:44:50.091Z,36.85
2022-08-23T18:47:16.602Z,36.75
2022-08-23T18:49:43.123Z,36.83
2022-08-23T18:52:09.667Z,36.83
2022-08-23T18:54:36.649Z,37.21
2022-08-23T18:57:03.572Z,37.11
2022-08-23T18:59:30.476Z,37.35
2022-08-23T19:01:57.311Z,37.37
2022-08-23T19:07:04.618Z,37.17
2022-08-23T19:09:31.155Z,37.53
2022-08-23T19:11:57.649Z,37.24
2022-08-23T19:14:24.164Z,37.08
2022-08-23T19:16:50.796Z,37.34
2022-08-23T19:19:17.673Z,37.23
2022-08-23T19:21:53.325Z,36.99
2022-08-23T19:24:19.848Z,36.75
2022-08-23T19:26:46.446Z,36.43
2022-08-23T19:29:13.232Z,36.68
2022-08-23T19:31:42.018Z,36.65
2022-08-23T19:34:09.649Z,36.44
2022-08-23T19:36:46.207Z,36.03
2022-08-23T19:39:15.573Z,36.24
2022-08-23T19:41:42.207Z,36.34
2022-08-23T19:44:09.231Z,36.25
2022-08-23T19:46:36.289Z,36.01
2022-08-23T19:49:02.890Z,36.42
2022-08-23T19:51:33.770Z,36.16
2022-08-23T19:54:00.295Z,36.33
2022-08-23T19:56:46.785Z,36.45
2022-08-23T19:59:19.393Z,36.29
2022-08-23T20:01:47.391Z,36.46
2022-08-23T20:04:13.940Z,36.84
2022-08-23T20:06:41.735Z,36.97
2022-08-23T20:09:10.075Z,36.98
2022-08-23T20:11:39.750Z,36.96
2022-08-23T20:14:06.918Z,37.31
2022-08-23T20:16:36.799Z,37.45
2022-08-23T20:19:07.447Z,37.61
2022-08-23T20:21:34.131Z,37.50
2022-08-23T20:24:00.723Z,37.71
2022-08-23T20:26:34.372Z,37.92
2022-08-23T20:29:02.268Z,38.15
2022-08-23T20:31:32.640Z,38.27
2022-08-23T20:34:01.953Z,38.17
2022-08-23T20:36:28.643Z,38.24
2022-08-23T20:38:56.319Z,38.52
2022-08-23T20:41:23.007Z,38.15
2022-08-23T20:43:49.684Z,38.17
2022-08-23T20:46:19.387Z,38.63
2022-08-23T20:48:45.875Z,38.57
2022-08-23T20:51:12.425Z,38.52
2022-08-23T20:53:41.874Z,38.53
2022-08-23T20:56:08.373Z,38.48
2022-08-23T20:58:34.880Z,38.52
2022-08-23T21:01:02.548Z,38.60
2022-08-23T21:03:29.223Z,38.86
2022-08-23T21:06:09.066Z,38.90
2022-08-23T21:08:36.030Z,39.16
2022-08-23T21:11:10.400Z,39.17
2022-08-23T21:13:37.025Z,39.37
2022-08-23T21:16:03.933Z,39.49
2022-08-23T21:18:30.485Z,39.36
2022-08-23T21:20:57.007Z,39.24
2022-08-23T21:23:23.662Z,38.97
2022-08-23T21:25:57.252Z,39.08
2022-08-23T21:28:25.148Z,39.18
2022-08-23T21:30:52.464Z,39.17
2022-08-23T21:33:20.151Z,39.25
2022-08-23T21:35:46.670Z,38.96
2022-08-23T21:38:13.174Z,39.36
2022-08-23T21:40:39.893Z,39.16
2022-08-23T21:43:09.373Z,39.29
2022-08-23T21:45:35.894Z,39.42
2022-08-23T21:48:10.538Z,39.52
2022-08-23T21:50:37.091Z,39.52
2022-08-23T21:53:03.665Z,39.52
2022-08-23T21:55:36.936Z,39.55
2022-08-23T21:58:03.880Z,39.78
2022-08-23T22:00:33.985Z,39.88
2022-08-23T22:03:01.006Z,39.85
2022-08-23T22:05:27.701Z,39.78
2022-08-23T22:07:54.348Z,39.94
2022-08-23T22:10:20.865Z,39.95
2022-08-23T22:12:48.139Z,40.05
2022-08-23T22:15:15.804Z,40.34
2022-08-23T22:17:42.646Z,40.36
2022-08-23T22:20:10.098Z,40.36
2022-08-23T22:22:37.376Z,40.48
2022-08-23T22:25:04.595Z,40.55
2022-08-23T22:27:31.263Z,40.71
2022-08-23T22:29:57.753Z,40.68
2022-08-23T22:32:24.285Z,40.81
2022-08-23T22:34:50.869Z,41.21
2022-08-23T22:37:17.505Z,41.16
2022-08-23T22:39:44.146Z,41.27
2022-08-23T22:42:10.700Z,41.38
2022-08-23T22:44:37.241Z,41.39
2022-08-23T22:47:03.863Z,41.37
2022-08-23T22:49:31.040Z,40.79
2022-08-23T22:51:57.761Z,40.57
2022-08-23T22:54:24.403Z,40.49
2022-08-23T22:56:52.150Z,40.73
2022-08-23T22:59:21.795Z,40.32
2022-08-23T23:01:55.988Z,40.26
2022-08-23T23:04:24.168Z,40.57
2022-08-23T23:06:51.028Z,41.04
2022-08-23T23:09:17.938Z,41.30
2022-08-23T23:11:44.811Z,40.97
2022-08-23T23:14:13.047Z,40.95
2022-08-23T23:16:40.431Z,41.78
2022-08-23T23:19:07.009Z,42.37
2022-08-23T23:21:40.178Z,42.79
2022-08-23T23:24:07.878Z,42.16
2022-08-23T23:26:34.736Z,41.43
2022-08-23T23:29:01.309Z,41.23
2022-08-23T23:31:28.021Z,42.56
2022-08-23T23:33:54.544Z,42.31
2022-08-23T23:36:21.061Z,41.83
2022-08-23T23:38:48.267Z,41.57
2022-08-23T23:41:15.099Z,41.38
2022-08-23T23:43:41.986Z,41.56
2022-08-23T23:46:14.572Z,41.66
2022-08-23T23:48:44.265Z,41.83
2022-08-23T23:51:12.924Z,41.89
2022-08-23T23:53:39.650Z,42.13
2022-08-23T23:56:10.203Z,42.50
2022-08-23T23:58:36.811Z,43.57
